Weather observations for the past three days for
OHIO U/ATHEN-ALBANY
Imperial (Metric)
Date Time (edt) Wind (mph) Vis. (mi.) Weather Sky Cond. Temperature (ºF) Relative Humidity Wind Chill (°F) Heat Index (°F) Pressure Precipitation (in)
Air Dwpt 6 hour altimeter (in) sea level (mb) 1 hr 3 hr 6 hr
Max. Min.
10 10:35 NE 6 10.00 A Few Clouds FEW085 59.4 56.1 89% 29.97 0.0 0.01
10 10:15 NE 5 10.00 Partly Cloudy FEW002 SCT041 SCT085 59.2 55.9 89% 29.95 0.0 0.01
10 09:55 Calm 4.00 Light Rain SCT001 59.4 54.1 83% 29.96 0.0
10 09:35 NW 3 10.00 Fair CLR 60.1 54 80% 29.96 0.0
10 09:15 Calm 10.00 A Few Clouds FEW150 60.6 54.5 80% 29.95 0.0
10 08:55 Calm 10.00 Partly Cloudy SCT140 58.3 54.9 88% 29.95 0.0
10 08:35 Calm 10.00 Partly Cloudy SCT140 57 54 90% 29.94 0.0
10 08:15 Calm 10.00 Partly Cloudy SCT150 55.9 54.1 94% 29.93 0.0
10 07:55 Calm 8.00 A Few Clouds FEW170 54.9 53.6 60.3 52.2 96% 29.93 0.0
10 07:35 Calm 9.00 Partly Cloudy SCT170 54.3 52.9 95% 29.92 0.0
10 07:15 Calm 9.00 Fair CLR 52.7 51.8 97% 29.9 0.0
10 06:55 Calm 9.00 Fair CLR 53.4 52 95% 29.89 0.0
10 06:35 Calm 10.00 Fair CLR 53.6 52 94% 29.89 0.0
10 06:15 W 3 10.00 A Few Clouds FEW170 53.1 52 96% 29.88 0.0
10 05:55 W 5 10.00 Fair CLR 54 52 93% 29.87 0.0
10 05:35 SW 5 10.00 Fair CLR 53.2 51.6 94% 29.86 0.0
10 05:15 W 3 10.00 Fair CLR 53.4 51.4 93% 29.86 0.0
10 04:55 SW 3 10.00 Fair CLR 54.3 51.6 91% 29.85 0.0
10 04:35 S 3 10.00 Fair CLR 53.2 51.6 94% 29.85 0.0
10 04:15 SW 5 10.00 Fair CLR 54.5 52.3 92% 29.85 0.0
10 03:55 NW 3 10.00 Fair CLR 57.2 52.5 84% 29.85 0.0
10 03:35 Calm 10.00 Fair CLR 57 52.5 85% 29.84 0.0
10 03:15 Calm 10.00 Fair CLR 57.9 52.3 82% 29.84 0.0
10 02:55 Calm 10.00 Fair CLR 58.3 52.5 81% 29.84 0.0
10 02:35 SW 6 10.00 Fair CLR 59.5 52.7 78% 29.84 0.0
10 02:15 SW 7 10.00 Fair CLR 59.7 52.7 78% 29.84 0.0
10 01:55 SW 5 10.00 Fair CLR 60.1 52.7 68.9 60.1 77% 29.84 0.0
10 01:35 SW 6 10.00 Fair CLR 61.3 52.9 74% 29.83 0.0
10 01:15 SW 6 10.00 Fair CLR 61.5 52.9 73% 29.84 0.0
10 00:55 SW 6 10.00 Fair CLR 61.5 52.9 73% 29.84 0.0
10 00:35 SW 8 10.00 Fair CLR 61.7 52.9 73% 29.84 0.0
10 00:15 SW 8 10.00 Fair CLR 61.9 52.9 73% 29.84 0.0
09 23:55 SW 6 10.00 Fair CLR 62.1 52.9 72% 29.84 0.0
09 23:35 SW 7 10.00 Fair CLR 62.6 52.9 71% 29.84 0.0
09 23:15 SW 6 10.00 Fair CLR 62.8 52.5 69% 29.83 0.0
09 22:55 S 6 10.00 Fair CLR 63 52 68% 29.83 0.0
09 22:35 S 6 10.00 Fair CLR 63.1 51.4 66% 29.83 0.0
09 22:15 S 6 10.00 Fair CLR 63.9 50.7 63% 29.82 0.0
09 21:55 S 6 10.00 Fair CLR 64.2 49.8 60% 29.81 0.0
09 19:15 SW 7 G 18 10.00 Fair CLR 70.9 48 44% 29.75 0.0
09 18:55 S 9 10.00 Fair CLR 71.6 49.3 45% 29.75 0.0
09 18:35 SW 10 10.00 Fair CLR 71.6 48.4 44% 29.76 0.0
09 18:15 SW 10 G 18 10.00 Fair CLR 71.4 49.6 46% 29.76 0.0
09 17:55 SW 12 10.00 Fair CLR 71.4 48.7 45% 29.76 0.0
09 17:35 SW 12 9.00 Fair CLR 70.5 48.9 46% 29.77 0.0
09 17:15 SW 10 G 17 5.00 Fair with Haze CLR 72 50.4 47% 29.77 0.0
09 16:55 SW 12 10.00 Fair CLR 70.2 49.8 49% 29.77 0.0
09 16:35 SW 9 10.00 A Few Clouds FEW050 70.3 49.8 48% 29.77 0.0
09 16:15 SW 6 10.00 Partly Cloudy FEW050 SCT340 69.4 50 50% 29.78 0.0
09 15:55 S 9 10.00 Fair CLR 69.4 50 50% 29.79 0.0
09 15:35 SW 9 10.00 A Few Clouds FEW380 69.3 51.6 54% 29.79 0.0
09 15:15 SW 8 G 16 10.00 Partly Cloudy FEW310 SCT380 68.2 50.4 53% 29.8 0.0
09 14:55 SW 10 10.00 Partly Cloudy FEW320 SCT380 68.2 50.5 53% 29.8 0.0
09 14:35 W 10 10.00 A Few Clouds FEW380 67.1 50 54% 29.79 0.0
09 14:15 Vrbl 7 10.00 Fair CLR 67.1 50.4 55% 29.8 0.0
09 13:55 SW 10 10.00 A Few Clouds FEW340 66.6 50.5 66.6 52.7 57% 29.8 0.0 0.02
09 13:35 S 10 10.00 Fair CLR 66 49.6 56% 29.8 0.0
09 13:15 S 9 10.00 Fair CLR 64.4 49.6 59% 29.8 0.0
09 12:55 S 14 10.00 A Few Clouds FEW320 63.5 49.8 61% 29.8 0.0
09 12:35 S 12 10.00 A Few Clouds FEW320 63 52.2 68% 29.8 0.0
09 12:15 S 12 10.00 Partly Cloudy FEW075 SCT320 SCT370 59.7 52.2 76% 29.8 0.0
09 11:55 S 7 10.00 Partly Cloudy SCT075 57.7 52.2 82% 29.8 0.0
09 11:35 S 8 10.00 A Few Clouds FEW320 57.2 52.5 84% 29.8 0.0
09 11:15 S 7 10.00 A Few Clouds FEW002 55.9 52.7 89% 29.8 0.0
09 10:55 S 5 9.00 Mostly Cloudy BKN070 54.9 52.9 93% 29.8 0.0 0.02
09 10:35 Vrbl 5 10.00 Mostly Cloudy BKN065 54.9 53.2 94% 29.8 0.0
09 10:15 S 6 10.00 Partly Cloudy SCT065 SCT360 55.2 53.2 93% 29.8 0.0
09 09:55 SE 5 10.00 A Few Clouds FEW350 55 53.2 94% 29.79 0.0 0.01
09 09:35 SE 5 10.00 Partly Cloudy SCT047 54.3 53.1 96% 29.79 0.0 0.01
09 09:15 Calm 6.00 Light Rain Fog/Mist FEW002 BKN041 54 52.3 94% 29.8 0.0 0.01
09 08:55 Calm 9.00 A Few Clouds FEW025 53.2 52 96% 29.81 0.0 0.01
09 08:35 E 3 9.00 Light Rain BKN049 53.2 52.2 96% 29.8 0.0 0.01
09 08:15 Calm 7.00 Light Rain OVC060 52.7 52.2 98% 29.82 0.0 0.01
09 07:55 Calm 7.00 Light Rain OVC050 52.5 51.8 57.2 52 97% 29.82 0.0 0.02 0.11
09 07:35 Calm 6.00 Light Rain Fog/Mist OVC050 52.5 51.8 97% 29.81 0.0 0.01
09 07:15 Calm 6.00 Light Rain Fog/Mist FEW002 OVC050 52 51.8 99% 29.82 0.0 0.01
09 06:55 Calm 6.00 Light Rain Fog/Mist FEW002 OVC050 52 52 100% 29.81 0.0 0.03
09 06:35 SE 3 4.00 Light Rain Fog/Mist SCT002 OVC055 52.2 52.2 100% 29.82 0.0 0.02
09 06:15 Calm 7.00 Light Rain FEW002 OVC055 52.2 52.2 100% 29.82 0.0 0.01
09 05:55 Calm 8.00 Light Rain FEW002 OVC055 52.3 52.3 100% 29.81 0.0 0.02
09 05:35 Calm 7.00 Light Rain FEW002 OVC055 52 51.8 99% 29.81 0.0 0.01
09 05:15 Calm 8.00 Light Rain BKN032 BKN065 52.2 51.6 98% 29.81 0.0
09 04:55 Calm 10.00 Partly Cloudy SCT022 52.3 51.6 97% 29.8 0.0 0.01 0.04
09 04:35 Calm 9.00 Light Rain BKN031 52.5 51.4 96% 29.81 0.0 0.01
09 04:15 W 5 9.00 Light Rain OVC038 52.3 51.8 98% 29.83 0.0
09 03:55 SE 3 8.00 Light Rain OVC019 52.7 51.6 96% 29.81 0.0 0.03
09 03:35 NE 6 9.00 Light Rain FEW002 OVC024 52.7 51.6 96% 29.8 0.0 0.03
09 03:15 Calm 7.00 Light Rain SCT002 BKN030 52.9 51.3 94% 29.82 0.0 0.02
09 02:55 Calm 9.00 Light Rain SCT010 54 50.9 89% 29.82 0.0
09 02:35 S 6 10.00 Light Rain FEW003 54.3 50.7 88% 29.81 0.0
09 02:15 Calm 9.00 Light Rain FEW002 55 50.5 85% 29.81 0.0
09 01:55 Vrbl 3 10.00 Light Rain FEW002 BKN039 57.4 46 66 55 66% 29.81 0.0
09 01:35 NW 6 8.00 Light Rain SCT002 OVC047 57.7 45.5 64% 29.83 0.0
09 01:15 W 9 8.00 Light Rain SCT035 58.3 44.6 61% 29.83 0.0
09 00:55 W 5 10.00 Partly Cloudy SCT085 55.2 47.7 76% 29.82 0.0
09 00:35 Calm 10.00 Mostly Cloudy BKN080 55.2 47.1 74% 29.82 0.0
09 00:15 Calm 10.00 A Few Clouds FEW090 55.6 45.9 70% 29.82 0.0
08 23:55 Calm 10.00 A Few Clouds FEW130 56.7 46 68% 29.83 0.0
08 23:35 Calm 10.00 Partly Cloudy FEW095 SCT140 57 46.6 68% 29.83 0.0
08 23:15 Calm 9.00 Mostly Cloudy BKN095 BKN140 56.5 45.5 67% 29.83 0.0
08 22:55 S 3 7.00 Partly Cloudy SCT100 56.7 46.2 68% 29.84 0.0
08 22:35 Calm 8.00 A Few Clouds FEW100 58.8 44.1 58% 29.84 0.0
08 22:15 Calm 10.00 A Few Clouds FEW130 59 44.4 59% 29.84 0.0
08 21:55 S 3 10.00 A Few Clouds FEW110 61.5 44.2 53% 29.84 0.0
08 21:35 SW 3 9.00 Fair CLR 63.1 40.3 43% 29.84 0.0
08 21:15 SW 3 10.00 A Few Clouds FEW090 63.1 42.3 47% 29.83 0.0
08 20:55 SW 3 10.00 Fair CLR 64 42.6 46% 29.83 0.0
08 20:35 SW 3 10.00 A Few Clouds FEW090 65.5 39.4 38% 29.83 0.0
08 20:15 SW 5 10.00 A Few Clouds FEW090 65.1 39.7 39% 29.83 0.0
08 19:55 SW 5 9.00 Mostly Cloudy BKN090 65.8 39.4 71.6 65.8 38% 29.83 0.0
08 19:35 SW 6 10.00 Mostly Cloudy BKN090 66.7 38.5 36% 29.82 0.0
08 18:55 SW 7 9.00 Mostly Cloudy BKN090 67.8 37.8 33% 29.81 0.0
08 18:35 SW 12 10.00 Partly Cloudy SCT090 68.4 37 32% 29.82 0.0
08 18:15 SW 9 9.00 Partly Cloudy SCT080 68.2 37.8 33% 29.82 0.0
08 17:55 SW 7 9.00 A Few Clouds FEW085 69.1 38.3 33% 29.82 0.0
08 17:35 SW 10 G 17 10.00 A Few Clouds FEW080 70.7 38.7 31% 29.81 0.0
08 17:15 SW 13 G 20 10.00 A Few Clouds FEW300 70.3 38.5 31% 29.82 0.0
08 16:55 SW 10 10.00 A Few Clouds FEW290 69.3 38.7 33% 29.83 0.0
08 16:35 SW 10 10.00 A Few Clouds FEW320 68.4 36.9 32% 29.83 0.0
08 16:15 SW 12 10.00 A Few Clouds FEW350 69.3 37.8 32% 29.84 0.0
08 15:55 SW 14 G 18 10.00 A Few Clouds FEW080 68.5 37.4 32% 29.85 0.0
08 15:35 SW 13 G 17 10.00 Fair CLR 68.2 38.1 33% 29.86 0.0
08 15:15 SW 10 G 21 10.00 A Few Clouds FEW075 68.7 37.2 32% 29.87 0.0
08 14:55 SW 14 G 26 10.00 Partly Cloudy FEW340 SCT380 70.3 40.3 34% 29.89 0.0
08 14:35 SW 13 10.00 Partly Cloudy FEW300 SCT370 68.4 38.8 34% 29.89 0.0
08 14:15 SW 16 G 22 10.00 A Few Clouds FEW340 69.6 39.9 34% 29.9 0.0
08 13:55 SW 13 G 21 10.00 A Few Clouds FEW250 67.5 39.9 68.7 43.2 37% 29.92 0.0
08 13:35 SW 16 G 23 10.00 Fair CLR 68.4 39.6 35% 29.92 0.0
08 13:15 W 14 G 22 10.00 Fair CLR 67.8 40.1 36% 29.92 0.0
08 12:55 W 13 10.00 Fair CLR 66.6 38.7 36% 29.94 0.0
08 12:35 W 15 G 20 10.00 Fair CLR 66.2 38.8 37% 29.95 0.0
08 12:15 W 13 10.00 Partly Cloudy FEW280 SCT370 65.3 39 38% 29.96 0.0
08 11:55 SW 10 10.00 Partly Cloudy FEW070 SCT340 SCT370 63.3 37.8 39% 29.98 0.0
08 11:35 SW 15 10.00 A Few Clouds FEW070 62.8 37.2 39% 29.98 0.0
08 11:15 SW 13 G 18 10.00 Fair CLR 63.1 37.4 39% 29.98 0.0
08 10:55 SW 12 G 17 10.00 Fair CLR 59.4 36.9 43% 29.99 0.0
08 10:35 SW 14 10.00 Fair CLR 59.9 37.6 44% 29.99 0.0
08 10:15 SW 12 10.00 Fair CLR 58.3 37.8 47% 29.99 0.0
08 09:55 SW 8 10.00 Fair CLR 55.8 38.7 53% 29.99 0.0
08 09:35 SW 9 10.00 Fair CLR 54.1 38.7 56% 29.99 0.0
08 09:15 SW 5 10.00 Fair CLR 51.3 39.9 65% 29.99 0.0
08 08:55 SW 7 10.00 A Few Clouds FEW070 48.6 39.4 71% 46 30 0.0
08 08:35 S 3 10.00 Fair CLR 46.9 38.3 72% 30 0.0
08 08:15 SW 5 10.00 Fair CLR 44.2 37.2 76% 42 29.99 0.0
08 07:55 SW 3 10.00 Fair CLR 41.5 37.8 41.5 34.5 86% 29.99 0.0
08 07:35 Calm 10.00 Fair CLR 39.2 37 92% 29.99 0.0
08 07:15 Vrbl 3 10.00 Fair CLR 38.3 35.8 91% 29.98 0.0
08 06:55 Calm 9.00 Fair CLR 36.5 34.9 94% 29.98 0.0
08 06:35 W 3 10.00 Fair CLR 35.6 34.5 96% 29.98 0.0
08 06:15 W 3 10.00 Fair CLR 34.9 34.2 97% 29.97 0.0
08 05:55 W 3 10.00 Fair CLR 34.7 34 97% 29.97 0.0
08 05:35 Calm 10.00 Fair CLR 35.6 34.7 97% 29.97 0.0
08 05:15 Calm 10.00 Fair CLR 35.2 34.7 98% 29.97 0.0
08 04:55 Calm 10.00 Fair CLR 35.8 35.2 98% 29.96 0.0
08 04:35 Calm 10.00 Fair CLR 36.5 35.6 97% 29.96 0.0
08 04:15 Calm 10.00 Fair CLR 35.6 34.9 97% 29.96 0.0
08 03:55 W 3 10.00 Fair CLR 36.1 35.4 97% 29.96 0.0
08 03:35 Calm 10.00 Fair CLR 36.9 36 97% 29.96 0.0
08 03:15 Calm 10.00 Fair CLR 36.5 35.6 97% 29.96 0.0
08 02:55 W 5 10.00 Fair CLR 36.5 35.4 96% 33 29.96 0.0
08 02:35 Calm 10.00 Fair CLR 36.7 35.6 96% 29.96 0.0
08 02:15 Calm 10.00 Fair CLR 37.6 36.1 95% 29.96 0.0
08 01:55 Calm 10.00 Fair CLR 38.5 37.4 56.7 37.6 96% 29.97 0.0
08 01:35 Calm 10.00 Fair CLR 37.9 36.1 93% 29.97 0.0
08 01:15 Calm 10.00 Fair CLR 38.1 36.1 93% 29.97 0.0
08 00:55 Calm 10.00 Fair CLR 40.1 37.8 91% 29.97 0.0
08 00:35 Calm 10.00 Fair CLR 39.7 36.9 89% 29.97 0.0
08 00:15 Calm 10.00 Fair CLR 39.9 37 89% 29.97 0.0
07 23:55 Calm 10.00 Fair CLR 40.6 36.5 85% 29.97 0.0
07 23:35 Calm 10.00 Fair CLR 42.3 36.9 81% 29.97 0.0
07 23:15 Calm 10.00 Fair CLR 43 36.7 79% 29.96 0.0
07 22:55 Calm 10.00 Fair CLR 43.9 36.5 75% 29.97 0.0
07 22:35 Calm 10.00 Fair CLR 44.8 36.3 72% 29.97 0.0
07 22:15 Calm 10.00 Fair CLR 45.1 38.5 78% 29.96 0.0
07 21:55 Calm 10.00 Fair CLR 46.4 36.3 68% 29.96 0.0
07 21:35 Calm 10.00 Fair CLR 47.3 39 73% 29.96 0.0
07 21:15 Calm 10.00 Fair CLR 48.9 37.6 65% 29.95 0.0
07 20:55 Calm 10.00 Fair CLR 52 33.8 50% 29.94 0.0
07 20:35 W 5 10.00 Fair CLR 54.1 30.6 41% 29.93 0.0
07 20:15 W 5 10.00 Fair CLR 55.6 31.1 39% 29.93 0.0
07 19:55 NW 8 10.00 Fair CLR 57.2 30.4 62.1 57.2 36% 29.93 0.0
07 19:35 NW 7 10.00 Fair CLR 57.9 30.6 35% 29.92 0.0
07 19:15 NW 9 10.00 Fair CLR 58.5 30.6 35% 29.92 0.0
07 18:55 NW 14 10.00 Fair CLR 59.4 30.4 33% 29.92 0.0
07 18:35 NW 9 G 22 10.00 Fair CLR 59.7 29.8 32% 29.92 0.0
07 18:15 NW 8 G 21 10.00 Fair CLR 60.1 29.8 32% 29.91 0.0
07 17:55 NW 12 G 17 10.00 Fair CLR 61 29.1 30% 29.9 0.0
07 17:35 NW 13 G 21 10.00 Fair CLR 60.8 28.9 30% 29.9 0.0
07 17:15 NW 15 G 20 10.00 Fair CLR 61.2 27.5 28% 29.89 0.0
07 16:15 W 13 G 20 10.00 Fair CLR 61.7 29.3 29% 29.89 0.0
07 15:55 W 13 10.00 Fair CLR 61.3 28.9 29% 29.89 0.0
07 15:35 NW 14 G 18 10.00 Fair CLR 61.3 29.3 30% 29.89 0.0
07 15:15 W 12 10.00 Fair CLR 61.9 29.8 30% 29.9 0.0
07 14:55 W 15 10.00 Fair CLR 61.2 31.5 33% 29.9 0.0
07 14:35 W 8 G 18 10.00 Fair CLR 61.7 32.4 33% 29.91 0.0
07 14:15 W 14 10.00 Fair CLR 61.7 32.4 33% 29.9 0.0
07 13:55 W 12 G 22 10.00 Fair CLR 60.8 32.5 61.2 43.2 35% 29.91 0.0
07 13:35 W 10 G 17 10.00 Fair CLR 60.4 34.2 37% 29.91 0.0
07 13:15 W 16 G 20 10.00 A Few Clouds FEW300 60.4 34.3 38% 29.92 0.0
07 12:55 W 14 G 21 10.00 A Few Clouds FEW380 60.3 32.9 36% 29.93 0.0
07 12:35 W 10 10.00 A Few Clouds FEW350 59 32 36% 29.93 0.0
07 12:15 Vrbl 6 10.00 A Few Clouds FEW350 58.5 32.5 38% 29.93 0.0
07 11:55 W 12 10.00 A Few Clouds FEW370 58.1 31.3 36% 29.93 0.0
07 11:35 SW 9 10.00 Fair CLR 57.9 32.9 39% 29.93 0.0
07 11:15 W 8 10.00 Fair CLR 56.8 32.4 40% 29.93 0.0
Date Time (edt) Wind (mph) Vis. (mi.) Weather Sky Cond. Air Dwpt Max. Min. Relative Humidity Wind Chill (°F) Heat Index (°F) altimeter (in) sea level (mb) 1 hr 3 hr 6 hr
6 hour
Temperature (ºF) Pressure Precipitation (in)